sensor_id;sensor_type;location;lat;lon;timestamp;P1;durP1;ratioP1;P2;durP2;ratioP2
12587;SDS011;6359;51.450;7.346;2023-03-11T00:01:57;5.93;;;2.53;;
12587;SDS011;6359;51.450;7.346;2023-03-11T00:04:26;2.40;;;2.20;;
12587;SDS011;6359;51.450;7.346;2023-03-11T00:06:52;4.93;;;2.93;;
12587;SDS011;6359;51.450;7.346;2023-03-11T00:09:19;2.47;;;2.27;;
12587;SDS011;6359;51.450;7.346;2023-03-11T00:11:46;4.73;;;3.07;;
12587;SDS011;6359;51.450;7.346;2023-03-11T00:14:13;8.50;;;2.90;;
12587;SDS011;6359;51.450;7.346;2023-03-11T00:16:40;4.17;;;3.50;;
12587;SDS011;6359;51.450;7.346;2023-03-11T00:19:08;3.73;;;3.30;;
12587;SDS011;6359;51.450;7.346;2023-03-11T00:21:37;2.13;;;1.97;;
12587;SDS011;6359;51.450;7.346;2023-03-11T00:24:04;3.73;;;3.43;;
12587;SDS011;6359;51.450;7.346;2023-03-11T00:26:31;4.97;;;3.77;;
12587;SDS011;6359;51.450;7.346;2023-03-11T00:28:58;3.63;;;3.33;;
12587;SDS011;6359;51.450;7.346;2023-03-11T00:31:25;5.40;;;3.30;;
12587;SDS011;6359;51.450;7.346;2023-03-11T00:33:53;4.43;;;3.20;;
12587;SDS011;6359;51.450;7.346;2023-03-11T00:36:21;5.90;;;3.87;;
12587;SDS011;6359;51.450;7.346;2023-03-11T00:38:56;5.20;;;3.97;;
12587;SDS011;6359;51.450;7.346;2023-03-11T00:41:24;2.80;;;2.60;;
12587;SDS011;6359;51.450;7.346;2023-03-11T00:43:51;3.13;;;2.83;;
12587;SDS011;6359;51.450;7.346;2023-03-11T00:46:18;3.47;;;3.17;;
12587;SDS011;6359;51.450;7.346;2023-03-11T00:48:44;4.57;;;3.10;;
12587;SDS011;6359;51.450;7.346;2023-03-11T00:51:12;2.87;;;2.57;;
12587;SDS011;6359;51.450;7.346;2023-03-11T00:53:40;2.73;;;2.53;;
12587;SDS011;6359;51.450;7.346;2023-03-11T00:56:09;3.70;;;2.57;;
12587;SDS011;6359;51.450;7.346;2023-03-11T00:58:38;3.70;;;2.30;;
12587;SDS011;6359;51.450;7.346;2023-03-11T01:01:06;2.53;;;2.27;;
12587;SDS011;6359;51.450;7.346;2023-03-11T01:03:34;2.67;;;2.40;;
12587;SDS011;6359;51.450;7.346;2023-03-11T01:06:01;4.87;;;3.00;;
12587;SDS011;6359;51.450;7.346;2023-03-11T01:08:29;3.10;;;2.33;;
12587;SDS011;6359;51.450;7.346;2023-03-11T01:10:56;2.80;;;2.53;;
12587;SDS011;6359;51.450;7.346;2023-03-11T01:13:25;2.93;;;2.60;;
12587;SDS011;6359;51.450;7.346;2023-03-11T01:15:53;8.93;;;2.90;;
12587;SDS011;6359;51.450;7.346;2023-03-11T01:18:20;3.60;;;2.97;;
12587;SDS011;6359;51.450;7.346;2023-03-11T01:20:47;4.97;;;3.67;;
12587;SDS011;6359;51.450;7.346;2023-03-11T01:23:15;4.90;;;3.43;;
12587;SDS011;6359;51.450;7.346;2023-03-11T01:25:43;4.87;;;3.73;;
12587;SDS011;6359;51.450;7.346;2023-03-11T01:28:09;4.13;;;3.03;;
12587;SDS011;6359;51.450;7.346;2023-03-11T01:30:39;7.50;;;3.30;;
12587;SDS011;6359;51.450;7.346;2023-03-11T01:33:07;4.03;;;3.40;;
12587;SDS011;6359;51.450;7.346;2023-03-11T01:35:38;4.57;;;3.47;;
12587;SDS011;6359;51.450;7.346;2023-03-11T01:38:06;5.10;;;3.60;;
12587;SDS011;6359;51.450;7.346;2023-03-11T01:40:34;3.47;;;3.17;;
12587;SDS011;6359;51.450;7.346;2023-03-11T01:43:03;7.90;;;3.10;;
12587;SDS011;6359;51.450;7.346;2023-03-11T01:45:34;3.60;;;2.70;;
12587;SDS011;6359;51.450;7.346;2023-03-11T01:48:27;7.97;;;3.10;;
12587;SDS011;6359;51.450;7.346;2023-03-11T01:50:54;4.47;;;2.53;;
12587;SDS011;6359;51.450;7.346;2023-03-11T01:53:22;4.77;;;2.60;;
12587;SDS011;6359;51.450;7.346;2023-03-11T01:55:50;6.10;;;2.28;;
12587;SDS011;6359;51.450;7.346;2023-03-11T01:58:18;3.27;;;2.33;;
12587;SDS011;6359;51.450;7.346;2023-03-11T02:00:50;3.30;;;2.37;;
12587;SDS011;6359;51.450;7.346;2023-03-11T02:03:20;3.63;;;2.60;;
12587;SDS011;6359;51.450;7.346;2023-03-11T02:05:51;3.87;;;2.30;;
12587;SDS011;6359;51.450;7.346;2023-03-11T02:08:20;4.50;;;2.40;;
12587;SDS011;6359;51.450;7.346;2023-03-11T02:10:48;3.53;;;2.30;;
12587;SDS011;6359;51.450;7.346;2023-03-11T02:13:17;4.63;;;1.93;;
12587;SDS011;6359;51.450;7.346;2023-03-11T02:15:44;5.13;;;2.10;;
12587;SDS011;6359;51.450;7.346;2023-03-11T02:18:13;4.30;;;2.23;;
12587;SDS011;6359;51.450;7.346;2023-03-11T02:20:43;2.63;;;1.83;;
12587;SDS011;6359;51.450;7.346;2023-03-11T02:23:15;5.85;;;1.80;;
12587;SDS011;6359;51.450;7.346;2023-03-11T02:25:45;2.60;;;1.83;;
12587;SDS011;6359;51.450;7.346;2023-03-11T02:28:20;4.67;;;1.80;;
12587;SDS011;6359;51.450;7.346;2023-03-11T02:30:48;3.80;;;1.73;;
12587;SDS011;6359;51.450;7.346;2023-03-11T02:33:16;5.93;;;2.37;;
12587;SDS011;6359;51.450;7.346;2023-03-11T02:35:44;7.10;;;1.83;;
12587;SDS011;6359;51.450;7.346;2023-03-11T02:38:11;3.37;;;2.33;;
12587;SDS011;6359;51.450;7.346;2023-03-11T02:40:40;3.93;;;2.07;;
12587;SDS011;6359;51.450;7.346;2023-03-11T02:43:14;4.70;;;2.27;;
12587;SDS011;6359;51.450;7.346;2023-03-11T02:45:44;3.80;;;1.97;;
12587;SDS011;6359;51.450;7.346;2023-03-11T02:48:13;10.20;;;2.20;;
12587;SDS011;6359;51.450;7.346;2023-03-11T02:50:41;4.45;;;2.42;;
12587;SDS011;6359;51.450;7.346;2023-03-11T02:53:10;5.10;;;2.30;;
12587;SDS011;6359;51.450;7.346;2023-03-11T02:55:37;7.70;;;2.60;;
12587;SDS011;6359;51.450;7.346;2023-03-11T02:58:04;4.70;;;2.10;;
12587;SDS011;6359;51.450;7.346;2023-03-11T03:00:31;2.57;;;1.80;;
12587;SDS011;6359;51.450;7.346;2023-03-11T03:03:00;6.80;;;2.10;;
12587;SDS011;6359;51.450;7.346;2023-03-11T03:05:26;4.87;;;2.10;;
12587;SDS011;6359;51.450;7.346;2023-03-11T03:07:54;3.95;;;2.50;;
12587;SDS011;6359;51.450;7.346;2023-03-11T03:10:21;3.80;;;2.20;;
12587;SDS011;6359;51.450;7.346;2023-03-11T03:12:48;5.17;;;2.70;;
12587;SDS011;6359;51.450;7.346;2023-03-11T03:15:15;5.07;;;2.47;;
12587;SDS011;6359;51.450;7.346;2023-03-11T03:17:42;5.40;;;2.70;;
12587;SDS011;6359;51.450;7.346;2023-03-11T03:20:12;5.07;;;2.80;;
12587;SDS011;6359;51.450;7.346;2023-03-11T03:22:40;5.53;;;2.33;;
12587;SDS011;6359;51.450;7.346;2023-03-11T03:25:08;6.67;;;2.57;;
12587;SDS011;6359;51.450;7.346;2023-03-11T03:27:36;5.97;;;2.35;;
12587;SDS011;6359;51.450;7.346;2023-03-11T03:30:03;6.17;;;2.77;;
12587;SDS011;6359;51.450;7.346;2023-03-11T03:32:31;9.50;;;2.65;;
12587;SDS011;6359;51.450;7.346;2023-03-11T03:34:58;6.78;;;2.60;;
12587;SDS011;6359;51.450;7.346;2023-03-11T03:37:27;7.70;;;2.93;;
12587;SDS011;6359;51.450;7.346;2023-03-11T03:39:57;8.83;;;2.60;;
12587;SDS011;6359;51.450;7.346;2023-03-11T03:42:24;6.00;;;2.50;;
12587;SDS011;6359;51.450;7.346;2023-03-11T03:44:51;7.70;;;2.80;;
12587;SDS011;6359;51.450;7.346;2023-03-11T03:47:18;6.47;;;2.70;;
12587;SDS011;6359;51.450;7.346;2023-03-11T03:49:46;9.50;;;2.63;;
12587;SDS011;6359;51.450;7.346;2023-03-11T03:52:13;7.20;;;2.87;;
12587;SDS011;6359;51.450;7.346;2023-03-11T03:54:41;7.23;;;2.77;;
12587;SDS011;6359;51.450;7.346;2023-03-11T03:57:08;6.77;;;2.90;;
12587;SDS011;6359;51.450;7.346;2023-03-11T03:59:35;11.03;;;2.43;;
12587;SDS011;6359;51.450;7.346;2023-03-11T04:02:02;7.72;;;2.25;;
12587;SDS011;6359;51.450;7.346;2023-03-11T04:04:29;10.60;;;2.80;;
12587;SDS011;6359;51.450;7.346;2023-03-11T04:06:56;6.95;;;2.58;;
12587;SDS011;6359;51.450;7.346;2023-03-11T04:09:23;8.73;;;2.90;;
12587;SDS011;6359;51.450;7.346;2023-03-11T04:11:51;8.73;;;2.95;;
12587;SDS011;6359;51.450;7.346;2023-03-11T04:14:18;6.93;;;2.20;;
12587;SDS011;6359;51.450;7.346;2023-03-11T04:16:45;8.35;;;2.72;;
12587;SDS011;6359;51.450;7.346;2023-03-11T04:19:12;11.88;;;3.03;;
12587;SDS011;6359;51.450;7.346;2023-03-11T04:21:39;11.63;;;2.85;;
12587;SDS011;6359;51.450;7.346;2023-03-11T04:24:06;8.97;;;2.40;;
12587;SDS011;6359;51.450;7.346;2023-03-11T04:26:33;5.50;;;2.67;;
12587;SDS011;6359;51.450;7.346;2023-03-11T04:29:02;12.13;;;2.50;;
12587;SDS011;6359;51.450;7.346;2023-03-11T04:31:29;7.20;;;2.93;;
12587;SDS011;6359;51.450;7.346;2023-03-11T04:33:56;6.65;;;2.38;;
12587;SDS011;6359;51.450;7.346;2023-03-11T04:36:22;6.53;;;2.40;;
12587;SDS011;6359;51.450;7.346;2023-03-11T04:38:49;7.57;;;2.33;;
12587;SDS011;6359;51.450;7.346;2023-03-11T04:41:16;7.93;;;2.53;;
12587;SDS011;6359;51.450;7.346;2023-03-11T04:43:43;7.43;;;2.45;;
12587;SDS011;6359;51.450;7.346;2023-03-11T04:46:11;8.47;;;2.67;;
12587;SDS011;6359;51.450;7.346;2023-03-11T04:48:38;7.13;;;2.37;;
12587;SDS011;6359;51.450;7.346;2023-03-11T04:51:05;5.43;;;2.33;;
12587;SDS011;6359;51.450;7.346;2023-03-11T04:53:33;7.30;;;2.63;;
12587;SDS011;6359;51.450;7.346;2023-03-11T04:55:59;8.82;;;2.47;;
12587;SDS011;6359;51.450;7.346;2023-03-11T04:58:26;6.55;;;2.50;;
12587;SDS011;6359;51.450;7.346;2023-03-11T05:00:53;5.47;;;1.80;;
12587;SDS011;6359;51.450;7.346;2023-03-11T05:03:22;5.97;;;2.30;;
12587;SDS011;6359;51.450;7.346;2023-03-11T05:05:49;10.03;;;2.47;;
12587;SDS011;6359;51.450;7.346;2023-03-11T05:08:18;6.68;;;2.33;;
12587;SDS011;6359;51.450;7.346;2023-03-11T05:10:44;3.95;;;2.10;;
12587;SDS011;6359;51.450;7.346;2023-03-11T05:13:11;4.22;;;2.20;;
12587;SDS011;6359;51.450;7.346;2023-03-11T05:15:38;5.60;;;2.17;;
12587;SDS011;6359;51.450;7.346;2023-03-11T05:18:06;12.82;;;2.63;;
12587;SDS011;6359;51.450;7.346;2023-03-11T05:20:35;4.88;;;1.88;;
12587;SDS011;6359;51.450;7.346;2023-03-11T05:23:01;3.35;;;1.83;;
12587;SDS011;6359;51.450;7.346;2023-03-11T05:25:28;5.53;;;2.35;;
12587;SDS011;6359;51.450;7.346;2023-03-11T05:27:56;10.25;;;2.78;;
12587;SDS011;6359;51.450;7.346;2023-03-11T05:30:23;10.25;;;2.58;;
12587;SDS011;6359;51.450;7.346;2023-03-11T05:32:49;7.65;;;2.15;;
12587;SDS011;6359;51.450;7.346;2023-03-11T05:35:16;6.68;;;2.20;;
12587;SDS011;6359;51.450;7.346;2023-03-11T05:37:46;6.85;;;1.98;;
12587;SDS011;6359;51.450;7.346;2023-03-11T05:40:14;4.97;;;1.75;;
12587;SDS011;6359;51.450;7.346;2023-03-11T05:42:41;6.05;;;2.17;;
12587;SDS011;6359;51.450;7.346;2023-03-11T05:45:08;8.68;;;2.70;;
12587;SDS011;6359;51.450;7.346;2023-03-11T05:47:36;6.53;;;2.07;;
12587;SDS011;6359;51.450;7.346;2023-03-11T05:50:03;6.32;;;1.90;;
12587;SDS011;6359;51.450;7.346;2023-03-11T05:52:30;7.10;;;2.27;;
12587;SDS011;6359;51.450;7.346;2023-03-11T05:54:59;8.00;;;2.50;;
12587;SDS011;6359;51.450;7.346;2023-03-11T05:57:26;2.30;;;1.70;;
12587;SDS011;6359;51.450;7.346;2023-03-11T05:59:53;5.60;;;2.00;;
12587;SDS011;6359;51.450;7.346;2023-03-11T06:02:20;11.43;;;2.35;;
12587;SDS011;6359;51.450;7.346;2023-03-11T06:04:47;3.90;;;2.13;;
12587;SDS011;6359;51.450;7.346;2023-03-11T06:07:14;7.33;;;2.30;;
12587;SDS011;6359;51.450;7.346;2023-03-11T06:09:41;7.70;;;2.67;;
12587;SDS011;6359;51.450;7.346;2023-03-11T06:12:09;5.40;;;1.75;;
12587;SDS011;6359;51.450;7.346;2023-03-11T06:14:36;7.33;;;2.50;;
12587;SDS011;6359;51.450;7.346;2023-03-11T06:17:03;5.47;;;2.57;;
12587;SDS011;6359;51.450;7.346;2023-03-11T06:19:30;6.50;;;2.40;;
12587;SDS011;6359;51.450;7.346;2023-03-11T06:21:57;6.55;;;2.50;;
12587;SDS011;6359;51.450;7.346;2023-03-11T06:24:24;5.53;;;2.05;;
12587;SDS011;6359;51.450;7.346;2023-03-11T06:26:51;5.45;;;2.35;;
12587;SDS011;6359;51.450;7.346;2023-03-11T06:29:19;2.80;;;2.33;;
12587;SDS011;6359;51.450;7.346;2023-03-11T06:31:48;6.97;;;2.30;;
12587;SDS011;6359;51.450;7.346;2023-03-11T06:34:15;7.75;;;2.60;;
12587;SDS011;6359;51.450;7.346;2023-03-11T06:36:42;8.53;;;2.70;;
12587;SDS011;6359;51.450;7.346;2023-03-11T06:39:10;5.32;;;2.47;;
12587;SDS011;6359;51.450;7.346;2023-03-11T06:41:38;6.40;;;2.30;;
12587;SDS011;6359;51.450;7.346;2023-03-11T06:44:05;10.45;;;2.38;;
12587;SDS011;6359;51.450;7.346;2023-03-11T06:46:33;11.15;;;2.55;;
12587;SDS011;6359;51.450;7.346;2023-03-11T06:49:01;8.77;;;2.17;;
12587;SDS011;6359;51.450;7.346;2023-03-11T06:51:27;8.77;;;2.72;;
12587;SDS011;6359;51.450;7.346;2023-03-11T06:53:54;8.95;;;2.33;;
12587;SDS011;6359;51.450;7.346;2023-03-11T06:56:21;9.15;;;2.30;;
12587;SDS011;6359;51.450;7.346;2023-03-11T06:58:49;8.73;;;2.30;;
12587;SDS011;6359;51.450;7.346;2023-03-11T07:01:16;8.10;;;2.13;;
12587;SDS011;6359;51.450;7.346;2023-03-11T07:03:46;9.45;;;2.92;;
12587;SDS011;6359;51.450;7.346;2023-03-11T07:06:14;7.55;;;2.63;;
12587;SDS011;6359;51.450;7.346;2023-03-11T07:08:42;6.47;;;2.92;;
12587;SDS011;6359;51.450;7.346;2023-03-11T07:11:11;7.28;;;2.95;;
12587;SDS011;6359;51.450;7.346;2023-03-11T07:13:40;8.68;;;2.40;;
12587;SDS011;6359;51.450;7.346;2023-03-11T07:16:08;4.78;;;2.05;;
12587;SDS011;6359;51.450;7.346;2023-03-11T07:18:36;9.23;;;2.43;;
12587;SDS011;6359;51.450;7.346;2023-03-11T07:21:05;12.90;;;2.72;;
12587;SDS011;6359;51.450;7.346;2023-03-11T07:23:33;6.50;;;2.28;;
12587;SDS011;6359;51.450;7.346;2023-03-11T07:26:01;5.47;;;2.10;;
12587;SDS011;6359;51.450;7.346;2023-03-11T07:28:29;11.18;;;2.55;;
12587;SDS011;6359;51.450;7.346;2023-03-11T07:30:56;5.50;;;2.35;;
12587;SDS011;6359;51.450;7.346;2023-03-11T07:33:23;6.30;;;2.58;;
12587;SDS011;6359;51.450;7.346;2023-03-11T07:35:50;8.60;;;1.95;;
12587;SDS011;6359;51.450;7.346;2023-03-11T07:38:18;8.48;;;2.88;;
12587;SDS011;6359;51.450;7.346;2023-03-11T07:40:45;7.90;;;2.50;;
12587;SDS011;6359;51.450;7.346;2023-03-11T07:43:12;6.50;;;1.77;;
12587;SDS011;6359;51.450;7.346;2023-03-11T07:45:39;7.95;;;2.17;;
12587;SDS011;6359;51.450;7.346;2023-03-11T07:48:06;5.47;;;2.72;;
12587;SDS011;6359;51.450;7.346;2023-03-11T07:50:33;9.43;;;2.30;;
12587;SDS011;6359;51.450;7.346;2023-03-11T07:52:59;4.63;;;2.00;;
12587;SDS011;6359;51.450;7.346;2023-03-11T07:55:28;7.55;;;2.00;;
12587;SDS011;6359;51.450;7.346;2023-03-11T07:57:54;4.68;;;1.58;;
12587;SDS011;6359;51.450;7.346;2023-03-11T08:00:21;7.32;;;1.98;;
12587;SDS011;6359;51.450;7.346;2023-03-11T08:02:48;4.78;;;1.77;;
12587;SDS011;6359;51.450;7.346;2023-03-11T08:05:15;3.47;;;1.70;;
12587;SDS011;6359;51.450;7.346;2023-03-11T08:07:44;4.32;;;1.38;;
12587;SDS011;6359;51.450;7.346;2023-03-11T08:10:11;6.82;;;1.80;;
12587;SDS011;6359;51.450;7.346;2023-03-11T08:12:40;3.95;;;1.98;;
12587;SDS011;6359;51.450;7.346;2023-03-11T08:15:07;11.48;;;1.90;;
12587;SDS011;6359;51.450;7.346;2023-03-11T08:17:35;4.85;;;2.13;;
12587;SDS011;6359;51.450;7.346;2023-03-11T08:20:02;4.93;;;2.05;;
12587;SDS011;6359;51.450;7.346;2023-03-11T08:22:32;5.05;;;1.90;;
12587;SDS011;6359;51.450;7.346;2023-03-11T08:24:59;5.10;;;1.90;;
12587;SDS011;6359;51.450;7.346;2023-03-11T08:27:26;11.13;;;2.17;;
12587;SDS011;6359;51.450;7.346;2023-03-11T08:29:55;4.28;;;2.00;;
12587;SDS011;6359;51.450;7.346;2023-03-11T08:32:23;4.70;;;1.85;;
12587;SDS011;6359;51.450;7.346;2023-03-11T08:34:50;4.75;;;2.15;;
12587;SDS011;6359;51.450;7.346;2023-03-11T08:37:17;5.22;;;1.58;;
12587;SDS011;6359;51.450;7.346;2023-03-11T08:39:44;5.97;;;1.80;;
12587;SDS011;6359;51.450;7.346;2023-03-11T08:42:11;5.90;;;1.90;;
12587;SDS011;6359;51.450;7.346;2023-03-11T08:44:38;6.95;;;2.08;;
12587;SDS011;6359;51.450;7.346;2023-03-11T08:47:06;3.65;;;1.90;;
12587;SDS011;6359;51.450;7.346;2023-03-11T08:49:33;5.10;;;1.90;;
12587;SDS011;6359;51.450;7.346;2023-03-11T08:52:00;4.80;;;1.85;;
12587;SDS011;6359;51.450;7.346;2023-03-11T08:54:27;3.20;;;1.65;;
12587;SDS011;6359;51.450;7.346;2023-03-11T08:56:54;5.63;;;1.70;;
12587;SDS011;6359;51.450;7.346;2023-03-11T08:59:22;4.85;;;1.50;;
12587;SDS011;6359;51.450;7.346;2023-03-11T09:01:49;3.88;;;1.50;;
12587;SDS011;6359;51.450;7.346;2023-03-11T09:04:17;5.50;;;1.85;;
12587;SDS011;6359;51.450;7.346;2023-03-11T09:14:08;203.70;;;60.30;;
12587;SDS011;6359;51.450;7.346;2023-03-11T09:16:35;120.63;;;40.17;;
12587;SDS011;6359;51.450;7.346;2023-03-11T09:26:28;214.30;;;71.73;;
12587;SDS011;6359;51.450;7.346;2023-03-11T09:28:55;209.20;;;75.05;;
12587;SDS011;6359;51.450;7.346;2023-03-11T09:31:22;216.07;;;76.38;;
12587;SDS011;6359;51.450;7.346;2023-03-11T09:33:49;222.05;;;77.07;;
12587;SDS011;6359;51.450;7.346;2023-03-11T09:36:19;156.60;;;55.72;;
12587;SDS011;6359;51.450;7.346;2023-03-11T09:38:48;148.35;;;52.00;;
12587;SDS011;6359;51.450;7.346;2023-03-11T09:41:21;202.48;;;66.88;;
12587;SDS011;6359;51.450;7.346;2023-03-11T09:43:57;236.18;;;84.88;;
12587;SDS011;6359;51.450;7.346;2023-03-11T09:47:02;244.73;;;96.22;;
12587;SDS011;6359;51.450;7.346;2023-03-11T09:49:52;246.43;;;94.72;;
12587;SDS011;6359;51.450;7.346;2023-03-11T09:52:56;233.63;;;81.00;;
12587;SDS011;6359;51.450;7.346;2023-03-11T09:55:36;220.32;;;74.78;;
12587;SDS011;6359;51.450;7.346;2023-03-11T09:58:13;228.23;;;77.78;;
12587;SDS011;6359;51.450;7.346;2023-03-11T10:00:44;254.60;;;90.63;;
12587;SDS011;6359;51.450;7.346;2023-03-11T10:03:16;225.60;;;69.10;;
12587;SDS011;6359;51.450;7.346;2023-03-11T10:05:52;212.10;;;60.80;;
12587;SDS011;6359;51.450;7.346;2023-03-11T10:08:23;221.00;;;67.85;;
12587;SDS011;6359;51.450;7.346;2023-03-11T10:11:00;197.85;;;60.53;;
12587;SDS011;6359;51.450;7.346;2023-03-11T10:13:36;3.38;;;0.93;;
12587;SDS011;6359;51.450;7.346;2023-03-11T10:16:11;3.60;;;0.90;;
12587;SDS011;6359;51.450;7.346;2023-03-11T10:18:49;1.75;;;0.70;;
12587;SDS011;6359;51.450;7.346;2023-03-11T10:21:26;4.25;;;1.40;;
12587;SDS011;6359;51.450;7.346;2023-03-11T10:24:05;3.83;;;1.20;;
12587;SDS011;6359;51.450;7.346;2023-03-11T10:26:44;5.72;;;1.15;;
12587;SDS011;6359;51.450;7.346;2023-03-11T10:29:16;3.42;;;0.90;;
12587;SDS011;6359;51.450;7.346;2023-03-11T10:31:47;6.43;;;1.30;;
12587;SDS011;6359;51.450;7.346;2023-03-11T10:34:19;2.47;;;1.17;;
12587;SDS011;6359;51.450;7.346;2023-03-11T10:36:52;4.63;;;1.13;;
12587;SDS011;6359;51.450;7.346;2023-03-11T10:39:24;4.55;;;1.48;;
12587;SDS011;6359;51.450;7.346;2023-03-11T10:41:53;5.05;;;1.13;;
12587;SDS011;6359;51.450;7.346;2023-03-11T10:44:23;7.53;;;1.10;;
12587;SDS011;6359;51.450;7.346;2023-03-11T10:46:54;3.15;;;1.00;;
12587;SDS011;6359;51.450;7.346;2023-03-11T10:49:21;2.60;;;1.00;;
12587;SDS011;6359;51.450;7.346;2023-03-11T10:51:48;2.80;;;0.90;;
12587;SDS011;6359;51.450;7.346;2023-03-11T10:54:24;3.58;;;1.00;;
12587;SDS011;6359;51.450;7.346;2023-03-11T10:56:55;3.92;;;1.17;;
12587;SDS011;6359;51.450;7.346;2023-03-11T10:59:24;4.63;;;1.02;;
12587;SDS011;6359;51.450;7.346;2023-03-11T11:01:54;2.20;;;1.00;;
12587;SDS011;6359;51.450;7.346;2023-03-11T11:04:25;4.55;;;1.20;;
12587;SDS011;6359;51.450;7.346;2023-03-11T11:06:58;2.30;;;1.20;;
12587;SDS011;6359;51.450;7.346;2023-03-11T11:09:46;3.30;;;1.25;;
12587;SDS011;6359;51.450;7.346;2023-03-11T11:12:24;4.70;;;1.27;;
12587;SDS011;6359;51.450;7.346;2023-03-11T11:14:51;3.15;;;1.05;;
12587;SDS011;6359;51.450;7.346;2023-03-11T11:17:21;4.60;;;1.55;;
12587;SDS011;6359;51.450;7.346;2023-03-11T11:19:49;4.80;;;1.30;;
12587;SDS011;6359;51.450;7.346;2023-03-11T11:22:19;4.60;;;1.50;;
12587;SDS011;6359;51.450;7.346;2023-03-11T11:24:48;2.25;;;0.98;;
12587;SDS011;6359;51.450;7.346;2023-03-11T11:27:17;7.32;;;1.42;;
12587;SDS011;6359;51.450;7.346;2023-03-11T11:29:47;3.55;;;1.42;;
12587;SDS011;6359;51.450;7.346;2023-03-11T11:32:31;3.50;;;1.30;;
12587;SDS011;6359;51.450;7.346;2023-03-11T11:34:58;4.60;;;1.42;;
12587;SDS011;6359;51.450;7.346;2023-03-11T11:37:27;1.80;;;1.00;;
12587;SDS011;6359;51.450;7.346;2023-03-11T11:39:57;4.60;;;1.30;;
12587;SDS011;6359;51.450;7.346;2023-03-11T11:42:34;2.75;;;1.10;;
12587;SDS011;6359;51.450;7.346;2023-03-11T11:45:08;2.78;;;1.10;;
12587;SDS011;6359;51.450;7.346;2023-03-11T11:47:40;4.47;;;1.50;;
12587;SDS011;6359;51.450;7.346;2023-03-11T11:50:13;4.45;;;1.38;;
12587;SDS011;6359;51.450;7.346;2023-03-11T11:52:43;3.83;;;1.20;;
12587;SDS011;6359;51.450;7.346;2023-03-11T11:55:17;2.58;;;1.00;;
12587;SDS011;6359;51.450;7.346;2023-03-11T11:57:47;2.50;;;1.05;;
12587;SDS011;6359;51.450;7.346;2023-03-11T12:00:20;4.40;;;1.27;;
12587;SDS011;6359;51.450;7.346;2023-03-11T12:02:56;3.88;;;1.90;;
12587;SDS011;6359;51.450;7.346;2023-03-11T12:05:42;4.63;;;1.17;;
12587;SDS011;6359;51.450;7.346;2023-03-11T12:08:18;3.47;;;1.23;;
12587;SDS011;6359;51.450;7.346;2023-03-11T12:10:52;1.52;;;0.98;;
12587;SDS011;6359;51.450;7.346;2023-03-11T12:16:30;3.63;;;1.35;;
12587;SDS011;6359;51.450;7.346;2023-03-11T12:19:08;3.50;;;1.50;;
12587;SDS011;6359;51.450;7.346;2023-03-11T12:21:58;3.90;;;1.20;;
12587;SDS011;6359;51.450;7.346;2023-03-11T12:24:50;3.17;;;1.40;;
12587;SDS011;6359;51.450;7.346;2023-03-11T12:27:29;3.50;;;1.35;;
12587;SDS011;6359;51.450;7.346;2023-03-11T12:30:00;3.28;;;1.20;;
12587;SDS011;6359;51.450;7.346;2023-03-11T12:32:32;2.35;;;1.00;;
12587;SDS011;6359;51.450;7.346;2023-03-11T12:35:08;4.60;;;1.27;;
12587;SDS011;6359;51.450;7.346;2023-03-11T12:37:44;5.18;;;1.50;;
12587;SDS011;6359;51.450;7.346;2023-03-11T12:43:23;4.60;;;1.10;;
12587;SDS011;6359;51.450;7.346;2023-03-11T12:45:54;2.75;;;1.15;;
12587;SDS011;6359;51.450;7.346;2023-03-11T12:48:29;1.67;;;1.20;;
12587;SDS011;6359;51.450;7.346;2023-03-11T12:50:58;2.55;;;1.50;;
12587;SDS011;6359;51.450;7.346;2023-03-11T12:53:41;2.67;;;1.30;;
12587;SDS011;6359;51.450;7.346;2023-03-11T12:56:13;3.75;;;1.70;;
12587;SDS011;6359;51.450;7.346;2023-03-11T12:58:58;3.65;;;1.30;;
12587;SDS011;6359;51.450;7.346;2023-03-11T13:01:55;1.10;;;1.00;;
12587;SDS011;6359;51.450;7.346;2023-03-11T13:04:34;2.28;;;1.20;;
12587;SDS011;6359;51.450;7.346;2023-03-11T13:10:13;5.60;;;1.60;;
12587;SDS011;6359;51.450;7.346;2023-03-11T13:12:42;3.03;;;1.42;;
12587;SDS011;6359;51.450;7.346;2023-03-11T13:15:31;7.28;;;1.73;;
12587;SDS011;6359;51.450;7.346;2023-03-11T13:18:01;3.40;;;1.50;;
12587;SDS011;6359;51.450;7.346;2023-03-11T13:20:43;6.72;;;1.98;;
12587;SDS011;6359;51.450;7.346;2023-03-11T13:26:16;5.53;;;1.45;;
12587;SDS011;6359;51.450;7.346;2023-03-11T13:29:17;2.78;;;1.35;;
12587;SDS011;6359;51.450;7.346;2023-03-11T13:31:58;2.67;;;1.30;;
12587;SDS011;6359;51.450;7.346;2023-03-11T13:34:39;4.88;;;1.45;;
12587;SDS011;6359;51.450;7.346;2023-03-11T13:37:17;4.15;;;1.33;;
12587;SDS011;6359;51.450;7.346;2023-03-11T13:39:55;2.83;;;1.40;;
12587;SDS011;6359;51.450;7.346;2023-03-11T13:42:39;1.02;;;0.90;;
12587;SDS011;6359;51.450;7.346;2023-03-11T13:45:22;3.15;;;1.30;;
12587;SDS011;6359;51.450;7.346;2023-03-11T13:47:53;2.58;;;1.17;;
12587;SDS011;6359;51.450;7.346;2023-03-11T13:50:25;2.33;;;1.30;;
12587;SDS011;6359;51.450;7.346;2023-03-11T13:52:57;4.90;;;1.40;;
12587;SDS011;6359;51.450;7.346;2023-03-11T13:55:27;4.38;;;1.05;;
12587;SDS011;6359;51.450;7.346;2023-03-11T13:57:59;7.60;;;1.15;;
12587;SDS011;6359;51.450;7.346;2023-03-11T14:00:26;3.90;;;1.40;;
12587;SDS011;6359;51.450;7.346;2023-03-11T14:02:54;1.52;;;0.90;;
12587;SDS011;6359;51.450;7.346;2023-03-11T14:05:24;4.30;;;1.17;;
12587;SDS011;6359;51.450;7.346;2023-03-11T14:07:52;2.53;;;1.42;;
12587;SDS011;6359;51.450;7.346;2023-03-11T14:10:25;3.22;;;1.20;;
12587;SDS011;6359;51.450;7.346;2023-03-11T14:15:44;2.28;;;1.27;;
12587;SDS011;6359;51.450;7.346;2023-03-11T14:18:22;4.55;;;1.50;;
12587;SDS011;6359;51.450;7.346;2023-03-11T14:20:52;7.18;;;1.55;;
12587;SDS011;6359;51.450;7.346;2023-03-11T14:23:19;2.60;;;1.30;;
12587;SDS011;6359;51.450;7.346;2023-03-11T14:25:48;1.65;;;1.20;;
12587;SDS011;6359;51.450;7.346;2023-03-11T14:28:24;2.78;;;1.10;;
12587;SDS011;6359;51.450;7.346;2023-03-11T14:30:56;4.90;;;1.30;;
12587;SDS011;6359;51.450;7.346;2023-03-11T14:33:24;1.55;;;1.30;;
12587;SDS011;6359;51.450;7.346;2023-03-11T14:35:52;2.28;;;0.80;;
12587;SDS011;6359;51.450;7.346;2023-03-11T14:38:20;2.08;;;1.40;;
12587;SDS011;6359;51.450;7.346;2023-03-11T14:40:50;2.88;;;1.10;;
12587;SDS011;6359;51.450;7.346;2023-03-11T14:43:19;3.25;;;1.15;;
12587;SDS011;6359;51.450;7.346;2023-03-11T14:45:47;1.90;;;1.25;;
12587;SDS011;6359;51.450;7.346;2023-03-11T14:48:17;2.63;;;1.20;;
12587;SDS011;6359;51.450;7.346;2023-03-11T14:50:48;1.20;;;1.05;;
12587;SDS011;6359;51.450;7.346;2023-03-11T14:53:16;3.72;;;1.35;;
12587;SDS011;6359;51.450;7.346;2023-03-11T14:55:50;3.45;;;1.30;;
12587;SDS011;6359;51.450;7.346;2023-03-11T14:58:22;3.22;;;1.35;;
12587;SDS011;6359;51.450;7.346;2023-03-11T15:00:54;6.63;;;1.70;;
12587;SDS011;6359;51.450;7.346;2023-03-11T15:03:27;1.70;;;1.15;;
12587;SDS011;6359;51.450;7.346;2023-03-11T15:05:57;2.75;;;1.13;;
12587;SDS011;6359;51.450;7.346;2023-03-11T15:08:28;6.45;;;1.35;;
12587;SDS011;6359;51.450;7.346;2023-03-11T15:11:01;2.10;;;1.15;;
12587;SDS011;6359;51.450;7.346;2023-03-11T15:13:33;3.42;;;1.10;;
12587;SDS011;6359;51.450;7.346;2023-03-11T15:16:02;4.40;;;1.70;;
12587;SDS011;6359;51.450;7.346;2023-03-11T15:18:31;3.72;;;1.85;;
12587;SDS011;6359;51.450;7.346;2023-03-11T15:21:02;2.22;;;1.10;;
12587;SDS011;6359;51.450;7.346;2023-03-11T15:23:33;2.10;;;1.17;;
12587;SDS011;6359;51.450;7.346;2023-03-11T15:26:02;2.65;;;1.60;;
12587;SDS011;6359;51.450;7.346;2023-03-11T15:28:31;4.15;;;1.70;;
12587;SDS011;6359;51.450;7.346;2023-03-11T15:33:55;3.95;;;1.52;;
12587;SDS011;6359;51.450;7.346;2023-03-11T15:36:35;3.95;;;1.48;;
12587;SDS011;6359;51.450;7.346;2023-03-11T15:39:11;4.45;;;1.83;;
12587;SDS011;6359;51.450;7.346;2023-03-11T15:41:43;5.43;;;1.40;;
12587;SDS011;6359;51.450;7.346;2023-03-11T15:44:21;2.15;;;1.50;;
12587;SDS011;6359;51.450;7.346;2023-03-11T15:46:51;6.05;;;1.50;;
12587;SDS011;6359;51.450;7.346;2023-03-11T15:49:18;4.00;;;1.67;;